createdAt,value
2019-05-18T00:00:08.594Z,8.90
2019-05-18T00:02:37.459Z,8.90
2019-05-18T00:05:07.170Z,8.80
2019-05-18T00:07:35.729Z,8.70
2019-05-18T00:10:06.040Z,8.70
2019-05-18T00:12:34.795Z,8.60
2019-05-18T00:15:04.409Z,8.60
2019-05-18T00:17:33.383Z,8.50
2019-05-18T00:20:02.222Z,8.40
2019-05-18T00:22:30.796Z,8.40
2019-05-18T00:24:59.500Z,8.30
2019-05-18T00:27:28.064Z,8.30
2019-05-18T00:29:57.020Z,8.20
2019-05-18T00:32:25.696Z,8.20
2019-05-18T00:34:54.258Z,8.10
2019-05-18T00:37:22.851Z,8.10
2019-05-18T00:39:51.428Z,8.10
2019-05-18T00:42:20.080Z,8.00
2019-05-18T00:44:48.729Z,8.00
2019-05-18T00:47:17.390Z,8.00
2019-05-18T00:49:46.035Z,7.90
2019-05-18T00:52:14.633Z,7.90
2019-05-18T00:54:43.730Z,7.90
2019-05-18T00:57:12.473Z,7.80
2019-05-18T00:59:41.043Z,7.80
2019-05-18T01:02:09.665Z,7.80
2019-05-18T01:04:38.597Z,7.80
2019-05-18T01:07:07.155Z,7.80
2019-05-18T01:09:35.745Z,7.90
2019-05-18T01:12:04.310Z,7.90
2019-05-18T01:14:32.955Z,7.90
2019-05-18T01:17:01.516Z,7.90
2019-05-18T01:19:30.144Z,8.00
2019-05-18T01:21:58.686Z,8.00
2019-05-18T01:24:27.330Z,8.10
2019-05-18T01:26:56.073Z,8.10
2019-05-18T01:29:24.661Z,8.10
2019-05-18T01:31:53.292Z,8.20
2019-05-18T01:34:21.879Z,8.30
2019-05-18T01:36:50.536Z,8.30
2019-05-18T01:39:19.123Z,8.40
2019-05-18T01:41:47.696Z,8.40
2019-05-18T01:44:16.368Z,8.50
2019-05-18T01:46:44.960Z,8.60
2019-05-18T01:49:13.686Z,8.60
2019-05-18T01:51:42.304Z,8.70
2019-05-18T01:54:10.874Z,8.70
2019-05-18T01:56:39.423Z,8.80
2019-05-18T01:59:08.221Z,8.90
2019-05-18T02:01:37.238Z,8.90
2019-05-18T02:04:05.879Z,8.90
2019-05-18T02:06:34.524Z,9.00
2019-05-18T02:09:04.622Z,9.00
2019-05-18T02:11:33.228Z,9.00
2019-05-18T02:14:01.789Z,9.00
2019-05-18T02:16:30.384Z,9.10
2019-05-18T02:18:58.949Z,9.10
2019-05-18T02:21:27.875Z,9.10
2019-05-18T02:23:56.429Z,9.10
2019-05-18T02:26:25.022Z,9.10
2019-05-18T02:28:53.605Z,9.20
2019-05-18T02:31:22.208Z,9.10
2019-05-18T02:33:50.765Z,9.10
2019-05-18T02:36:19.416Z,9.10
2019-05-18T02:38:47.985Z,9.20
2019-05-18T02:41:16.564Z,9.20
2019-05-18T02:43:45.811Z,9.20
2019-05-18T02:46:14.769Z,9.30
2019-05-18T02:48:49.689Z,9.30
2019-05-18T02:51:13.760Z,9.30
2019-05-18T02:53:42.340Z,9.30
2019-05-18T02:56:11.012Z,9.30
2019-05-18T02:58:39.580Z,9.30
2019-05-18T03:01:08.546Z,9.30
2019-05-18T03:03:37.131Z,9.30
2019-05-18T03:06:05.863Z,9.40
2019-05-18T03:08:34.562Z,9.40
2019-05-18T03:11:03.252Z,9.40
2019-05-18T03:13:31.806Z,9.40
2019-05-18T03:16:00.825Z,9.50
2019-05-18T03:18:29.469Z,9.50
2019-05-18T03:20:58.042Z,9.50
2019-05-18T03:23:26.621Z,9.60
2019-05-18T03:25:55.277Z,9.60
2019-05-18T03:28:23.837Z,9.60
2019-05-18T03:30:52.729Z,9.60
2019-05-18T03:33:28.068Z,9.60
2019-05-18T03:35:51.554Z,9.70
2019-05-18T03:38:20.172Z,9.70
2019-05-18T03:40:48.833Z,9.70
2019-05-18T03:43:17.413Z,9.70
2019-05-18T03:45:45.966Z,9.80
2019-05-18T03:48:14.551Z,9.80
2019-05-18T03:50:43.702Z,9.70
2019-05-18T03:53:12.371Z,9.80
2019-05-18T03:55:40.982Z,9.80
2019-05-18T03:58:09.663Z,9.80
2019-05-18T04:00:38.225Z,9.80
2019-05-18T04:03:06.952Z,9.80
2019-05-18T04:05:35.563Z,9.80
2019-05-18T04:08:04.147Z,9.80
2019-05-18T04:10:32.813Z,9.80
2019-05-18T04:13:01.692Z,9.80
2019-05-18T04:15:30.269Z,9.90
2019-05-18T04:17:59.271Z,9.80
2019-05-18T04:20:28.268Z,9.90
2019-05-18T04:22:56.860Z,9.90
2019-05-18T04:25:25.427Z,9.90
2019-05-18T04:27:54.049Z,9.90
2019-05-18T04:30:22.765Z,10.00
2019-05-18T04:32:51.354Z,10.00
2019-05-18T04:35:19.952Z,10.00
2019-05-18T04:37:48.538Z,10.00
2019-05-18T04:40:17.251Z,10.10
2019-05-18T04:42:45.866Z,10.10
2019-05-18T04:45:14.716Z,10.20
2019-05-18T04:47:43.296Z,10.30
2019-05-18T04:50:12.130Z,10.30
2019-05-18T04:52:41.058Z,10.30
2019-05-18T04:55:09.804Z,10.40
2019-05-18T04:57:38.390Z,10.40
2019-05-18T05:00:10.267Z,10.50
2019-05-18T05:02:38.875Z,10.60
2019-05-18T05:05:07.897Z,10.60
2019-05-18T05:07:36.560Z,10.70
2019-05-18T05:10:07.959Z,10.70
2019-05-18T05:12:36.571Z,10.80
2019-05-18T05:15:05.969Z,10.90
2019-05-18T05:17:34.574Z,11.00
2019-05-18T05:20:18.313Z,11.00
2019-05-18T05:22:34.702Z,11.10
2019-05-18T05:25:03.449Z,11.20
2019-05-18T05:27:32.017Z,11.30
2019-05-18T05:30:00.596Z,11.40
2019-05-18T05:32:29.171Z,11.40
2019-05-18T05:34:57.852Z,11.50
2019-05-18T05:37:26.798Z,11.70
2019-05-18T05:39:55.393Z,11.80
2019-05-18T05:42:24.371Z,11.90
2019-05-18T05:44:54.247Z,12.00
2019-05-18T05:47:22.913Z,12.10
2019-05-18T05:49:51.506Z,12.30
2019-05-18T05:52:24.080Z,12.40
2019-05-18T05:54:52.594Z,12.60
2019-05-18T05:57:21.523Z,12.70
2019-05-18T05:59:50.093Z,12.90
2019-05-18T06:02:19.172Z,13.10
2019-05-18T06:04:47.742Z,13.30
2019-05-18T06:07:16.431Z,13.50
2019-05-18T06:09:45.005Z,13.60
2019-05-18T06:12:13.620Z,13.70
2019-05-18T06:14:42.286Z,13.80
2019-05-18T06:17:10.922Z,14.00
2019-05-18T06:19:39.513Z,14.10
2019-05-18T06:22:08.249Z,14.20
2019-05-18T06:24:36.896Z,14.30
2019-05-18T06:27:05.621Z,14.50
2019-05-18T06:29:34.391Z,14.60
2019-05-18T06:32:03.361Z,14.80
2019-05-18T06:34:32.396Z,14.90
2019-05-18T06:37:00.989Z,14.90
2019-05-18T06:39:29.630Z,15.00
2019-05-18T06:41:58.163Z,15.00
2019-05-18T06:44:26.765Z,15.10
2019-05-18T06:46:55.322Z,15.20
2019-05-18T06:49:23.928Z,15.20
2019-05-18T06:51:52.757Z,15.20
2019-05-18T06:54:21.360Z,15.30
2019-05-18T06:56:51.185Z,15.30
2019-05-18T06:59:20.201Z,15.30
2019-05-18T07:01:48.801Z,15.30
2019-05-18T07:04:17.389Z,15.30
2019-05-18T07:06:45.979Z,15.40
2019-05-18T07:09:14.643Z,15.40
2019-05-18T07:11:43.227Z,15.50
2019-05-18T07:14:24.862Z,15.40
2019-05-18T07:16:42.139Z,15.40
2019-05-18T07:19:10.797Z,15.40
2019-05-18T07:21:39.458Z,15.40
2019-05-18T07:24:08.188Z,15.30
2019-05-18T07:26:36.880Z,15.40
2019-05-18T07:29:05.889Z,15.40
2019-05-18T07:31:34.573Z,15.50
2019-05-18T07:34:03.297Z,15.50
2019-05-18T07:36:31.889Z,15.60
2019-05-18T07:39:00.463Z,15.70
2019-05-18T07:41:29.061Z,15.70
2019-05-18T07:43:57.610Z,15.80
2019-05-18T07:46:26.198Z,15.80
2019-05-18T07:48:54.792Z,15.90
2019-05-18T07:51:36.322Z,16.10
2019-05-18T07:53:53.666Z,16.10
2019-05-18T07:56:22.254Z,16.10
2019-05-18T07:58:50.887Z,16.20
2019-05-18T08:01:19.849Z,16.20
2019-05-18T08:03:48.452Z,16.30
2019-05-18T08:06:17.192Z,16.40
2019-05-18T08:08:45.870Z,16.50
2019-05-18T08:11:14.501Z,16.50
2019-05-18T08:13:43.241Z,16.60
2019-05-18T08:16:11.800Z,16.60
2019-05-18T08:18:40.858Z,16.80
2019-05-18T08:21:09.496Z,16.90
2019-05-18T08:23:38.106Z,17.00
2019-05-18T08:26:06.761Z,17.10
2019-05-18T08:28:35.381Z,17.10
2019-05-18T08:31:04.419Z,17.20
2019-05-18T08:33:32.983Z,17.30
2019-05-18T08:36:01.716Z,17.40
2019-05-18T08:38:30.363Z,17.40
2019-05-18T08:40:58.968Z,17.60
2019-05-18T08:43:27.573Z,17.60
2019-05-18T08:45:56.177Z,17.60
2019-05-18T08:48:24.804Z,17.60
2019-05-18T08:50:53.860Z,17.60
2019-05-18T08:53:22.724Z,17.60
2019-05-18T08:55:51.532Z,17.70
2019-05-18T08:58:20.161Z,17.80
2019-05-18T09:00:48.837Z,17.90
2019-05-18T09:03:17.434Z,17.90
2019-05-18T09:05:46.013Z,18.10
2019-05-18T09:08:14.608Z,18.20
2019-05-18T09:10:43.246Z,18.30
2019-05-18T09:13:11.838Z,18.30
2019-05-18T09:15:40.402Z,18.40
2019-05-18T09:18:08.983Z,18.50
2019-05-18T09:20:37.667Z,18.50
2019-05-18T09:23:06.642Z,18.60
2019-05-18T09:25:35.285Z,18.70
2019-05-18T09:28:03.985Z,18.80
2019-05-18T09:30:32.613Z,18.80
2019-05-18T09:33:01.150Z,18.90
2019-05-18T09:35:29.756Z,18.90
2019-05-18T09:37:58.393Z,18.90
2019-05-18T09:40:29.637Z,19.10
2019-05-18T09:42:58.358Z,19.20
2019-05-18T09:45:27.108Z,19.30
2019-05-18T09:47:55.808Z,19.50
2019-05-18T09:50:24.709Z,19.60
2019-05-18T09:52:53.303Z,19.80
2019-05-18T09:55:22.013Z,20.00
2019-05-18T09:57:51.137Z,20.00
2019-05-18T10:00:21.316Z,20.10
2019-05-18T10:02:50.047Z,20.30
2019-05-18T10:05:18.851Z,20.30
2019-05-18T10:07:47.609Z,20.50
2019-05-18T10:10:16.281Z,20.60
2019-05-18T10:12:45.684Z,20.90
2019-05-18T10:15:14.719Z,21.00
2019-05-18T10:17:43.716Z,21.30
2019-05-18T10:20:13.130Z,21.40
2019-05-18T10:22:55.061Z,21.60
2019-05-18T10:25:12.977Z,21.90
2019-05-18T10:27:41.578Z,22.00
2019-05-18T10:30:11.519Z,22.20
2019-05-18T10:32:40.213Z,22.40
2019-05-18T10:35:09.166Z,22.60
2019-05-18T10:37:38.353Z,22.80
2019-05-18T10:40:08.696Z,22.90
2019-05-18T10:42:37.695Z,23.10
2019-05-18T10:45:07.481Z,23.40
2019-05-18T10:47:36.086Z,23.60
2019-05-18T10:50:06.844Z,23.90
2019-05-18T10:52:35.417Z,24.10
2019-05-18T10:55:05.871Z,24.30
2019-05-18T10:57:39.259Z,24.40
2019-05-18T11:00:10.100Z,24.60
2019-05-18T11:02:39.244Z,24.70
2019-05-18T11:05:11.700Z,24.90
2019-05-18T11:07:40.394Z,25.10
2019-05-18T11:10:10.879Z,25.20
2019-05-18T11:12:40.102Z,25.10
2019-05-18T11:15:09.954Z,25.00
2019-05-18T11:17:38.716Z,25.00
2019-05-18T11:20:11.395Z,24.80
2019-05-18T11:22:40.167Z,24.70
2019-05-18T11:25:09.304Z,24.60
2019-05-18T11:27:38.009Z,24.50
2019-05-18T11:30:07.706Z,24.30
2019-05-18T11:32:36.792Z,24.40
2019-05-18T11:35:09.135Z,24.50
2019-05-18T11:37:37.827Z,24.70
2019-05-18T11:40:08.504Z,24.70
2019-05-18T11:42:37.782Z,24.80
2019-05-18T11:45:08.835Z,24.80
2019-05-18T11:47:37.505Z,24.90
2019-05-18T11:50:08.746Z,25.00
2019-05-18T11:52:37.532Z,25.10
2019-05-18T11:55:06.837Z,25.00
2019-05-18T11:57:35.590Z,24.90
2019-05-18T12:00:10.744Z,24.80
2019-05-18T12:02:39.413Z,24.90
2019-05-18T12:05:08.550Z,25.10
2019-05-18T12:07:37.300Z,25.30
2019-05-18T12:10:10.958Z,25.60
2019-05-18T12:12:39.801Z,25.70
2019-05-18T12:15:10.392Z,25.80
2019-05-18T12:17:39.023Z,26.00
2019-05-18T12:20:09.001Z,26.10
2019-05-18T12:22:37.738Z,26.30
2019-05-18T12:25:07.374Z,26.40
2019-05-18T12:27:36.069Z,26.60
2019-05-18T12:30:06.667Z,26.70
2019-05-18T12:32:35.256Z,27.10
2019-05-18T12:35:05.514Z,27.20
2019-05-18T12:37:34.071Z,27.20
2019-05-18T12:40:02.757Z,27.00
2019-05-18T12:42:31.622Z,27.10
2019-05-18T12:45:00.288Z,27.00
2019-05-18T12:47:28.939Z,26.80
2019-05-18T12:49:57.669Z,26.60
2019-05-18T12:52:26.602Z,26.40
2019-05-18T12:54:55.325Z,26.30
2019-05-18T12:57:24.096Z,26.10
2019-05-18T12:59:53.059Z,25.80
2019-05-18T13:02:21.653Z,25.70
2019-05-18T13:04:50.220Z,25.80
2019-05-18T13:07:18.833Z,25.80
2019-05-18T13:09:47.481Z,26.10
2019-05-18T13:12:16.150Z,26.50
2019-05-18T13:14:45.089Z,26.80
2019-05-18T13:17:13.858Z,26.90
2019-05-18T13:19:42.450Z,27.40
2019-05-18T13:22:11.124Z,27.60
2019-05-18T13:24:45.252Z,27.40
2019-05-18T13:27:09.991Z,27.30
2019-05-18T13:29:38.556Z,27.40
2019-05-18T13:32:07.135Z,27.50
2019-05-18T13:34:35.877Z,27.70
2019-05-18T13:37:04.491Z,28.00
2019-05-18T13:39:33.139Z,28.50
2019-05-18T13:42:01.737Z,28.70
2019-05-18T13:44:30.370Z,29.00
2019-05-18T13:46:58.951Z,29.10
2019-05-18T13:49:29.467Z,28.90
2019-05-18T13:51:57.825Z,28.80
2019-05-18T13:54:26.406Z,28.40
2019-05-18T13:56:55.000Z,28.00
2019-05-18T13:59:23.965Z,28.00
2019-05-18T14:01:55.067Z,28.10
2019-05-18T14:04:22.775Z,28.00
2019-05-18T14:06:51.412Z,28.00
2019-05-18T14:09:20.086Z,28.00
2019-05-18T14:11:48.715Z,28.70
2019-05-18T14:14:17.387Z,30.00
2019-05-18T14:16:46.442Z,30.50
2019-05-18T14:19:15.126Z,30.50
2019-05-18T14:21:43.720Z,30.30
2019-05-18T14:24:12.443Z,30.40
2019-05-18T14:26:44.055Z,30.90
2019-05-18T14:29:12.723Z,31.40
2019-05-18T14:31:41.392Z,31.50
2019-05-18T14:34:10.017Z,31.30
2019-05-18T14:36:38.606Z,31.80
2019-05-18T14:39:07.304Z,32.60
2019-05-18T14:41:36.063Z,33.50
2019-05-18T14:44:05.079Z,34.40
2019-05-18T14:46:33.685Z,35.00
2019-05-18T14:49:02.328Z,35.50
2019-05-18T14:51:30.939Z,35.30
2019-05-18T14:53:59.536Z,35.10
2019-05-18T14:56:28.152Z,34.50
2019-05-18T14:58:56.782Z,34.30
2019-05-18T15:01:25.494Z,33.80
2019-05-18T15:03:54.241Z,33.00
2019-05-18T15:06:22.873Z,32.30
2019-05-18T15:08:51.545Z,31.70
2019-05-18T15:11:20.201Z,31.90
2019-05-18T15:13:49.083Z,32.30
2019-05-18T15:16:17.741Z,33.10
2019-05-18T15:18:46.336Z,33.60
2019-05-18T15:21:14.976Z,34.40
2019-05-18T15:23:43.627Z,34.90
2019-05-18T15:26:12.295Z,35.60
2019-05-18T15:28:40.960Z,35.90
2019-05-18T15:31:09.937Z,36.20
2019-05-18T15:33:38.543Z,36.00
2019-05-18T15:36:07.171Z,35.70
2019-05-18T15:38:35.848Z,35.30
2019-05-18T15:41:04.563Z,35.20
2019-05-18T15:43:33.289Z,35.30
2019-05-18T15:46:01.876Z,35.30
2019-05-18T15:48:30.626Z,35.50
2019-05-18T15:50:59.474Z,35.40
2019-05-18T15:53:28.082Z,35.20
2019-05-18T15:56:05.232Z,34.90
2019-05-18T15:58:27.029Z,34.80
2019-05-18T16:00:55.594Z,34.90
2019-05-18T16:03:24.186Z,35.00
2019-05-18T16:05:52.755Z,35.10
2019-05-18T16:08:21.328Z,35.10
2019-05-18T16:10:49.934Z,35.30
2019-05-18T16:13:18.518Z,35.20
2019-05-18T16:15:47.099Z,35.10
2019-05-18T16:18:15.852Z,34.90
2019-05-18T16:20:44.496Z,34.80
2019-05-18T16:23:13.134Z,34.90
2019-05-18T16:25:41.739Z,34.60
2019-05-18T16:28:10.850Z,34.40
2019-05-18T16:30:40.959Z,34.30
2019-05-18T16:33:09.774Z,34.00
2019-05-18T16:35:42.175Z,33.80
2019-05-18T16:38:11.331Z,33.10
2019-05-18T16:40:40.112Z,32.60
2019-05-18T16:43:14.619Z,31.80
2019-05-18T16:45:43.285Z,31.30
2019-05-18T16:48:11.997Z,31.10
2019-05-18T16:50:40.706Z,30.70
2019-05-18T16:53:09.597Z,30.30
2019-05-18T16:55:38.390Z,30.10
2019-05-18T16:58:10.171Z,29.60
2019-05-18T17:00:45.938Z,29.30
2019-05-18T17:03:16.313Z,28.60
2019-05-18T17:05:48.005Z,28.20
2019-05-18T17:08:17.022Z,28.10
2019-05-18T17:10:48.331Z,28.00
2019-05-18T17:13:17.435Z,27.20
2019-05-18T17:15:46.563Z,27.00
2019-05-18T17:18:39.974Z,26.80
2019-05-18T17:20:53.968Z,26.30
2019-05-18T17:23:22.989Z,25.70
2019-05-18T17:25:51.999Z,25.10
2019-05-18T17:28:22.370Z,24.60
2019-05-18T17:30:52.940Z,24.10
2019-05-18T17:33:23.559Z,23.70
2019-05-18T17:36:00.207Z,23.40
2019-05-18T17:38:23.013Z,23.10
2019-05-18T17:40:55.944Z,22.80
2019-05-18T17:43:24.890Z,22.50
2019-05-18T17:45:53.710Z,22.20
2019-05-18T17:48:25.429Z,21.80
2019-05-18T17:50:54.347Z,21.30
2019-05-18T17:53:22.943Z,21.10
2019-05-18T17:55:53.555Z,20.80
2019-05-18T17:58:22.489Z,20.60
2019-05-18T18:00:52.967Z,20.30
2019-05-18T18:03:21.845Z,20.00
2019-05-18T18:05:53.324Z,19.70
2019-05-18T18:08:22.231Z,19.50
2019-05-18T18:10:53.043Z,19.30
2019-05-18T18:13:21.647Z,19.20
2019-05-18T18:15:50.471Z,19.00
2019-05-18T18:18:19.330Z,19.00
2019-05-18T18:20:48.157Z,18.90
2019-05-18T18:23:18.849Z,18.60
2019-05-18T18:25:49.017Z,18.50
2019-05-18T18:28:18.794Z,18.40
2019-05-18T18:30:49.884Z,18.30
2019-05-18T18:33:20.590Z,18.00
2019-05-18T18:35:49.272Z,17.90
2019-05-18T18:38:19.521Z,17.90
2019-05-18T18:40:48.532Z,17.80
2019-05-18T18:43:20.104Z,17.60
2019-05-18T18:45:50.349Z,17.50
2019-05-18T18:48:22.117Z,17.30
2019-05-18T18:50:51.151Z,17.10
2019-05-18T18:53:20.110Z,16.90
2019-05-18T18:55:49.244Z,16.70
2019-05-18T18:58:19.612Z,16.60
2019-05-18T19:00:50.445Z,16.40
2019-05-18T19:03:19.167Z,16.30
2019-05-18T19:05:50.928Z,16.20
2019-05-18T19:08:20.405Z,16.00
2019-05-18T19:10:49.231Z,15.90
2019-05-18T19:13:18.058Z,15.80
2019-05-18T19:15:47.098Z,15.70
2019-05-18T19:18:16.605Z,15.60
2019-05-18T19:20:45.619Z,15.50
2019-05-18T19:23:14.475Z,15.40
2019-05-18T19:25:43.245Z,15.30
2019-05-18T19:28:11.874Z,15.30
2019-05-18T19:30:42.571Z,15.20
2019-05-18T19:33:20.305Z,15.10
2019-05-18T19:35:49.265Z,15.00
2019-05-18T19:38:18.178Z,15.00
2019-05-18T19:40:47.149Z,15.00
2019-05-18T19:43:15.993Z,15.00
2019-05-18T19:45:44.727Z,14.90
2019-05-18T19:48:13.413Z,14.90
2019-05-18T19:50:42.491Z,14.80
2019-05-18T19:53:11.208Z,14.80
2019-05-18T19:55:40.278Z,14.70
2019-05-18T19:58:09.493Z,14.70
2019-05-18T20:00:38.449Z,14.60
2019-05-18T20:03:07.317Z,14.60
2019-05-18T20:05:36.659Z,14.60
2019-05-18T20:08:05.334Z,14.60
2019-05-18T20:10:51.091Z,14.50
2019-05-18T20:13:09.377Z,14.50
2019-05-18T20:15:38.163Z,14.50
2019-05-18T20:18:06.956Z,14.50
2019-05-18T20:20:35.734Z,14.40
2019-05-18T20:23:08.057Z,14.40
2019-05-18T20:25:34.963Z,14.30
2019-05-18T20:28:03.544Z,14.40
2019-05-18T20:30:32.309Z,14.30
2019-05-18T20:33:01.026Z,14.30
2019-05-18T20:35:30.155Z,14.30
2019-05-18T20:37:59.000Z,14.20
2019-05-18T20:40:27.701Z,14.20
2019-05-18T20:42:56.571Z,14.20
2019-05-18T20:45:25.267Z,14.20
2019-05-18T20:47:54.451Z,14.20
2019-05-18T20:50:23.218Z,14.10
2019-05-18T20:52:51.875Z,14.10
2019-05-18T20:55:20.700Z,14.10
2019-05-18T20:57:49.434Z,14.10
2019-05-18T21:00:18.239Z,14.10
2019-05-18T21:02:47.312Z,14.10
2019-05-18T21:05:16.558Z,14.10
2019-05-18T21:07:45.270Z,14.10
2019-05-18T21:10:14.034Z,14.10
2019-05-18T21:12:42.690Z,14.10
2019-05-18T21:15:12.215Z,14.00
2019-05-18T21:17:40.814Z,14.10
2019-05-18T21:20:11.589Z,14.10
2019-05-18T21:22:40.230Z,14.00
2019-05-18T21:25:09.093Z,14.10
2019-05-18T21:27:37.937Z,14.00
2019-05-18T21:30:07.954Z,14.00
2019-05-18T21:32:36.665Z,14.00
2019-05-18T21:35:08.419Z,14.00
2019-05-18T21:37:37.266Z,14.00
2019-05-18T21:40:12.063Z,13.90
2019-05-18T21:42:38.451Z,13.90
2019-05-18T21:45:08.082Z,13.90
2019-05-18T21:47:36.773Z,13.90
2019-05-18T21:50:07.140Z,13.90
2019-05-18T21:52:36.354Z,13.90
2019-05-18T21:55:13.175Z,13.90
2019-05-18T21:57:42.332Z,13.80
2019-05-18T22:00:11.546Z,13.80
2019-05-18T22:02:43.387Z,13.80
2019-05-18T22:05:12.143Z,13.80
2019-05-18T22:07:40.969Z,13.80
2019-05-18T22:10:24.879Z,13.70
2019-05-18T22:12:42.290Z,13.70
2019-05-18T22:15:11.387Z,13.70
2019-05-18T22:17:58.046Z,13.60
2019-05-18T22:20:26.679Z,13.60
2019-05-18T22:22:55.399Z,13.50
2019-05-18T22:25:24.122Z,13.50
2019-05-18T22:27:53.389Z,13.50
2019-05-18T22:30:22.466Z,13.40
2019-05-18T22:32:51.278Z,13.40
2019-05-18T22:35:20.047Z,13.30
2019-05-18T22:37:49.035Z,13.30
2019-05-18T22:40:18.151Z,13.30
2019-05-18T22:42:47.007Z,13.20
2019-05-18T22:45:15.880Z,13.20
2019-05-18T22:47:44.572Z,13.10
2019-05-18T22:50:13.444Z,13.00
2019-05-18T22:52:42.400Z,13.00
2019-05-18T22:55:11.258Z,12.90
2019-05-18T22:57:40.389Z,12.90
2019-05-18T23:00:09.358Z,12.80
2019-05-18T23:02:38.299Z,12.80
2019-05-18T23:05:07.253Z,12.70
2019-05-18T23:07:35.959Z,12.70
2019-05-18T23:10:05.925Z,12.60
2019-05-18T23:12:34.543Z,12.60
2019-05-18T23:15:06.285Z,12.60
2019-05-18T23:17:35.212Z,12.50
2019-05-18T23:20:05.828Z,12.40
2019-05-18T23:22:34.717Z,12.40
2019-05-18T23:25:05.226Z,12.40
2019-05-18T23:27:34.037Z,12.30
2019-05-18T23:30:08.955Z,12.30
2019-05-18T23:32:37.890Z,12.20
2019-05-18T23:35:06.897Z,12.20
2019-05-18T23:37:35.691Z,12.20
2019-05-18T23:40:08.092Z,12.20
2019-05-18T23:42:39.965Z,12.10
2019-05-18T23:45:08.946Z,12.10
2019-05-18T23:47:38.505Z,12.10
2019-05-18T23:50:08.916Z,12.00
2019-05-18T23:52:38.154Z,12.00
2019-05-18T23:55:07.689Z,12.00
2019-05-18T23:57:39.131Z,11.90
